createdAt,value
2022-08-21T00:02:02.567Z,17.83
2022-08-21T00:07:23.389Z,19.07
2022-08-21T00:12:28.427Z,20.30
2022-08-21T00:17:30.673Z,21.57
2022-08-21T00:22:51.609Z,21.03
2022-08-21T00:28:12.968Z,22.00
2022-08-21T00:33:15.363Z,22.57
2022-08-21T00:38:36.060Z,23.40
2022-08-21T00:43:40.591Z,26.57
2022-08-21T00:48:42.918Z,26.10
2022-08-21T00:53:51.756Z,27.30
2022-08-21T00:58:57.545Z,26.27
2022-08-21T01:04:18.398Z,28.23
2022-08-21T01:09:21.070Z,30.03
2022-08-21T01:14:23.836Z,29.97
2022-08-21T01:19:44.902Z,28.20
2022-08-21T01:24:47.044Z,28.83
2022-08-21T01:29:58.344Z,28.63
2022-08-21T01:35:00.626Z,30.33
2022-08-21T01:40:03.243Z,30.73
2022-08-21T01:45:25.261Z,27.80
2022-08-21T01:50:27.565Z,28.90
2022-08-21T01:55:29.808Z,27.73
2022-08-21T02:00:32.080Z,27.40
2022-08-21T02:05:34.407Z,26.60
2022-08-21T02:10:36.649Z,27.33
2022-08-21T02:15:38.856Z,28.10
2022-08-21T02:20:45.954Z,25.90
2022-08-21T02:25:48.203Z,26.77
2022-08-21T02:31:09.630Z,25.53
2022-08-21T02:36:13.034Z,28.03
2022-08-21T02:41:17.827Z,26.23
2022-08-21T02:46:21.928Z,26.33
2022-08-21T02:51:24.396Z,26.47
2022-08-21T02:56:26.625Z,26.73
2022-08-21T03:01:33.813Z,23.77
2022-08-21T03:06:36.120Z,25.60
2022-08-21T03:11:38.407Z,25.43
2022-08-21T03:16:40.672Z,25.43
2022-08-21T03:21:42.961Z,24.63
2022-08-21T03:27:03.798Z,26.27
2022-08-21T03:32:11.608Z,24.30
2022-08-21T03:37:33.438Z,25.00
2022-08-21T03:42:36.070Z,23.47
2022-08-21T03:48:00.715Z,23.40
2022-08-21T03:53:03.761Z,22.90
2022-08-21T03:58:16.793Z,22.67
2022-08-21T04:03:19.701Z,22.20
2022-08-21T04:08:22.028Z,22.97
2022-08-21T04:13:29.323Z,21.73
2022-08-21T04:18:31.596Z,23.23
2022-08-21T04:23:33.800Z,23.13
2022-08-21T04:28:36.048Z,20.83
2022-08-21T04:33:38.196Z,21.70
2022-08-21T04:38:44.698Z,23.07
2022-08-21T04:43:47.634Z,22.37
2022-08-21T04:48:50.054Z,21.83
2022-08-21T04:53:55.419Z,20.80
2022-08-21T04:58:59.441Z,21.10
2022-08-21T05:04:05.610Z,20.87
2022-08-21T05:09:08.095Z,22.07
2022-08-21T05:14:12.448Z,21.67
2022-08-21T05:19:15.095Z,22.60
2022-08-21T05:24:18.514Z,22.57
2022-08-21T05:29:21.408Z,21.57
2022-08-21T05:34:25.050Z,24.07
2022-08-21T05:39:27.236Z,24.43
2022-08-21T05:44:49.503Z,23.80
2022-08-21T05:49:51.701Z,23.90
2022-08-21T05:55:12.694Z,24.83
2022-08-21T06:00:15.613Z,24.60
2022-08-21T06:05:36.370Z,24.20
2022-08-21T06:10:39.971Z,24.60
2022-08-21T06:15:42.272Z,24.67
2022-08-21T06:21:03.596Z,24.20
2022-08-21T06:26:24.970Z,23.83
2022-08-21T06:31:28.927Z,23.13
2022-08-21T06:36:31.414Z,24.70
2022-08-21T06:41:39.226Z,25.60
2022-08-21T06:47:01.239Z,23.10
2022-08-21T06:52:04.715Z,24.33
2022-08-21T06:57:07.266Z,23.33
2022-08-21T07:02:09.605Z,24.33
2022-08-21T07:07:30.388Z,24.67
2022-08-21T07:12:32.884Z,23.85
2022-08-21T07:17:35.167Z,23.65
2022-08-21T07:22:38.113Z,22.73
2022-08-21T07:27:40.461Z,24.73
2022-08-21T07:32:42.720Z,24.38
2022-08-21T07:37:44.923Z,24.60
2022-08-21T07:42:51.226Z,26.98
2022-08-21T07:47:57.305Z,26.58
2022-08-21T07:53:00.132Z,25.02
2022-08-21T07:58:02.544Z,25.95
2022-08-21T08:03:04.904Z,28.73
2022-08-21T08:08:26.281Z,23.58
2022-08-21T08:13:28.626Z,23.75
2022-08-21T08:18:31.171Z,23.33
2022-08-21T08:23:33.799Z,18.15
2022-08-21T08:28:56.149Z,19.02
2022-08-21T08:33:58.391Z,21.67
2022-08-21T08:39:01.985Z,21.23
2022-08-21T08:44:08.399Z,21.38
2022-08-21T08:49:22.438Z,20.73
2022-08-21T08:54:50.065Z,20.88
2022-08-21T08:59:56.470Z,21.58
2022-08-21T09:05:02.012Z,18.65
2022-08-21T09:10:13.692Z,17.58
2022-08-21T09:15:38.938Z,18.05
2022-08-21T09:21:00.210Z,18.58
2022-08-21T09:26:08.603Z,18.05
2022-08-21T09:36:45.429Z,17.27
2022-08-21T09:42:09.441Z,17.85
2022-08-21T09:47:14.057Z,16.92
2022-08-21T09:52:23.011Z,14.88
2022-08-21T09:57:39.633Z,12.23
2022-08-21T10:03:21.429Z,12.15
2022-08-21T10:08:26.046Z,13.18
2022-08-21T10:13:59.332Z,12.13
2022-08-21T10:19:10.083Z,13.68
2022-08-21T10:24:31.109Z,10.98
2022-08-21T10:30:05.925Z,12.15
2022-08-21T10:35:14.008Z,12.10
2022-08-21T10:40:19.374Z,13.35
2022-08-21T10:46:12.749Z,13.68
2022-08-21T10:51:50.263Z,13.40
2022-08-21T10:56:59.973Z,13.18
2022-08-21T11:02:42.488Z,13.30
2022-08-21T11:08:07.771Z,14.45
2022-08-21T11:13:19.594Z,12.40
2022-08-21T11:18:54.709Z,11.70
2022-08-21T11:24:22.672Z,13.15
2022-08-21T11:29:45.742Z,10.97
2022-08-21T11:35:07.288Z,10.30
2022-08-21T11:40:18.733Z,9.02
2022-08-21T11:45:32.791Z,10.55
2022-08-21T11:50:37.885Z,9.32
2022-08-21T11:55:48.902Z,10.85
2022-08-21T12:01:08.802Z,8.80
2022-08-21T12:06:14.310Z,8.10
2022-08-21T12:11:30.826Z,5.93
2022-08-21T12:16:37.507Z,6.60
2022-08-21T12:21:58.500Z,9.73
2022-08-21T12:27:31.331Z,9.88
2022-08-21T12:32:43.848Z,10.98
2022-08-21T12:37:53.757Z,10.32
2022-08-21T12:42:59.506Z,10.70
2022-08-21T12:48:08.954Z,12.05
2022-08-21T12:53:20.949Z,9.55
2022-08-21T12:58:25.634Z,11.25
2022-08-21T13:03:28.831Z,8.88
2022-08-21T13:08:53.567Z,8.30
2022-08-21T13:13:59.115Z,8.07
2022-08-21T13:19:07.732Z,12.93
2022-08-21T13:24:42.197Z,11.70
2022-08-21T13:30:18.960Z,9.32
2022-08-21T13:36:14.058Z,9.23
2022-08-21T13:41:26.998Z,8.27
2022-08-21T13:46:49.639Z,10.57
2022-08-21T13:51:53.377Z,9.57
2022-08-21T13:57:34.750Z,17.00
2022-08-21T14:02:43.801Z,19.13
2022-08-21T14:07:53.536Z,28.02
2022-08-21T14:13:04.413Z,30.52
2022-08-21T14:18:18.618Z,28.88
2022-08-21T14:23:27.512Z,9.43
2022-08-21T14:28:33.852Z,8.50
2022-08-21T14:33:36.382Z,6.97
2022-08-21T14:38:42.837Z,5.20
2022-08-21T14:43:47.130Z,5.35
2022-08-21T14:48:50.289Z,5.22
2022-08-21T14:53:52.746Z,6.40
2022-08-21T14:58:59.826Z,7.10
2022-08-21T15:04:02.169Z,6.55
2022-08-21T15:09:06.400Z,6.90
2022-08-21T15:14:11.149Z,5.10
2022-08-21T15:19:13.519Z,3.80
2022-08-21T15:24:16.378Z,4.00
2022-08-21T15:29:22.599Z,5.32
2022-08-21T15:34:28.337Z,7.32
2022-08-21T15:39:31.541Z,5.00
2022-08-21T15:44:41.322Z,3.30
2022-08-21T15:49:46.403Z,2.95
2022-08-21T15:54:49.229Z,2.83
2022-08-21T16:00:11.557Z,2.90
2022-08-21T16:05:20.348Z,2.80
2022-08-21T16:10:28.086Z,2.88
2022-08-21T16:15:32.646Z,2.55
2022-08-21T16:20:35.098Z,4.38
2022-08-21T16:25:39.949Z,4.43
2022-08-21T16:30:45.016Z,2.70
2022-08-21T16:35:47.748Z,2.20
2022-08-21T16:40:50.388Z,5.78
2022-08-21T16:45:54.008Z,2.70
2022-08-21T16:50:57.549Z,1.90
2022-08-21T16:56:01.928Z,2.35
2022-08-21T17:01:07.076Z,2.33
2022-08-21T17:06:10.481Z,2.10
2022-08-21T17:11:37.077Z,2.35
2022-08-21T17:16:43.847Z,1.95
2022-08-21T17:21:46.419Z,2.47
2022-08-21T17:26:49.017Z,2.63
2022-08-21T17:31:51.465Z,3.28
2022-08-21T17:36:54.003Z,3.33
2022-08-21T17:41:58.013Z,3.70
2022-08-21T17:47:04.696Z,5.53
2022-08-21T17:52:07.894Z,8.43
2022-08-21T17:57:18.801Z,10.93
2022-08-21T18:02:22.262Z,10.80
2022-08-21T18:07:31.736Z,11.95
2022-08-21T18:12:35.763Z,13.70
2022-08-21T18:17:38.322Z,15.00
2022-08-21T18:22:40.667Z,13.70
2022-08-21T18:27:45.952Z,12.20
2022-08-21T18:32:51.229Z,12.55
2022-08-21T18:37:53.690Z,13.32
2022-08-21T18:42:56.217Z,11.50
2022-08-21T18:47:59.041Z,12.13
2022-08-21T18:53:01.784Z,11.20
2022-08-21T18:58:12.760Z,11.18
2022-08-21T19:03:23.656Z,10.35
2022-08-21T19:08:29.043Z,10.38
2022-08-21T19:13:32.855Z,9.15
2022-08-21T19:18:39.192Z,8.88
2022-08-21T19:23:44.331Z,9.35
2022-08-21T19:28:54.723Z,8.55
2022-08-21T19:34:05.046Z,7.35
2022-08-21T19:39:08.404Z,7.07
2022-08-21T19:44:15.656Z,6.75
2022-08-21T19:49:21.359Z,7.50
2022-08-21T19:59:37.560Z,5.47
2022-08-21T20:10:08.465Z,5.38
2022-08-21T20:15:23.069Z,4.80
2022-08-21T20:20:25.636Z,4.80
2022-08-21T20:25:34.563Z,5.07
2022-08-21T20:30:46.642Z,5.75
2022-08-21T20:35:50.419Z,5.47
2022-08-21T20:40:53.797Z,4.25
2022-08-21T20:45:57.492Z,4.88
2022-08-21T20:51:10.846Z,5.03
2022-08-21T20:56:21.210Z,4.78
2022-08-21T21:01:25.250Z,4.20
2022-08-21T21:06:29.017Z,15.65
2022-08-21T21:11:40.145Z,5.30
2022-08-21T21:16:56.432Z,4.25
2022-08-21T21:22:04.014Z,4.45
2022-08-21T21:27:14.111Z,5.35
2022-08-21T21:32:21.304Z,5.40
2022-08-21T21:37:42.992Z,4.50
2022-08-21T21:43:23.510Z,3.97
2022-08-21T21:48:53.574Z,3.40
2022-08-21T21:54:23.272Z,6.78
2022-08-21T21:59:43.539Z,4.70
2022-08-21T22:04:52.437Z,3.50
2022-08-21T22:10:05.927Z,3.88
2022-08-21T22:20:51.275Z,3.50
2022-08-21T22:25:56.423Z,3.20
2022-08-21T22:31:24.905Z,3.20
2022-08-21T22:36:30.824Z,4.70
2022-08-21T22:41:38.767Z,4.03
2022-08-21T22:46:50.040Z,3.53
2022-08-21T22:51:57.671Z,3.00
2022-08-21T22:57:03.677Z,3.27
2022-08-21T23:02:25.663Z,3.83
2022-08-21T23:07:34.856Z,3.03
2022-08-21T23:12:39.038Z,3.00
2022-08-21T23:18:01.343Z,3.57
2022-08-21T23:23:28.235Z,3.47
2022-08-21T23:28:49.141Z,3.45
2022-08-21T23:34:22.719Z,5.40
2022-08-21T23:39:43.273Z,5.50
2022-08-21T23:44:56.126Z,3.72
2022-08-21T23:50:27.307Z,3.33
2022-08-21T23:55:58.178Z,3.40
